Погода Зембрувна неделю

Мазовецкое воеводство, Польша

15 - 21 июля
  • 15июля
    Сегодня
    +18°
    +29°
    Ясно и безоблачно
    ВремяПогодаТемператураВлажностьДавлениеВетер, м/сВероятность осадков
    02:00Облачно с прояснениями+17°C96 %745 мм0.9 м/с2 %
    05:00Облачно с прояснениями+16°C98 %745 мм0.8 м/с2 %
    08:00Пасмурно, сплошная облачность+21°C90 %745 мм1.3 м/с11 %
    11:00Практически безоблачно+24°C67 %746 мм1.6 м/с28 %
    14:00Ясно и безоблачно+28°C56 %745 мм2.3 м/с5 %
    17:00Ясно и безоблачно+29°C55 %745 мм1.7 м/с2 %
    20:00Ясно и безоблачно+25°C74 %745 мм0.9 м/с2 %
    23:00Ясно и безоблачно+21°C78 %745 мм1.2 м/с2 %
  • 16июля
    Вторник
    +20°
    +32°
    Ясно и безоблачно
    ВремяПогодаТемператураВлажностьДавлениеВетер, м/сВероятность осадков
    02:00Ясно и безоблачно+19°C85 %745 мм1.1 м/с2 %
    05:00Ясно и безоблачно+19°C85 %745 мм1.4 м/с2 %
    08:00Ясно и безоблачно+25°C74 %745 мм2.1 м/с2 %
    11:00Ясно и безоблачно+29°C47 %745 мм3.1 м/с2 %
    14:00Ясно и безоблачно+31°C50 %744 мм3.5 м/с1 %
    17:00Небольшая облачность+31°C61 %743 мм2.8 м/с9 %
    20:00Небольшая облачность, ливень+26°C94 %743 мм2.0 м/с59 %
    23:00Облачно с прояснениями+22°C94 %743 мм1.4 м/с43 %
  • 17июля
    Среда
    +17°
    +29°
    Ясно и безоблачно
    ВремяПогодаТемператураВлажностьДавлениеВетер, м/сВероятность осадков
    02:00Пасмурно, дожди с грозами+21°C96 %744 мм1.8 м/с40 %
    05:00Облачно с прояснениями+20°C97 %744 мм2.0 м/с26 %
    08:00Небольшая облачность+23°C85 %746 мм2.1 м/с3 %
    11:00Ясно и безоблачно+26°C52 %747 мм2.8 м/с5 %
    14:00Ясно и безоблачно+28°C43 %747 мм3.4 м/с7 %
    17:00Ясно и безоблачно+29°C44 %747 мм2.8 м/с2 %
    20:00Ясно и безоблачно+25°C61 %747 мм1.9 м/с2 %
    23:00Ясно и безоблачно+20°C63 %748 мм1.2 м/с3 %
  • 18июля
    Четверг
    +14°
    +26°
    Небольшая облачность
    ВремяПогодаТемператураВлажностьДавлениеВетер, м/сВероятность осадков
    02:00Ясно и безоблачно+18°C76 %748 мм1.4 м/с5 %
    05:00Ясно и безоблачно+17°C86 %749 мм1.3 м/с8 %
    08:00Ясно и безоблачно+21°C68 %750 мм1.8 м/с6 %
    11:00Практически безоблачно+24°C50 %750 мм2.6 м/с2 %
    14:00Небольшая облачность+26°C42 %749 мм3.3 м/с7 %
    17:00Ясно и безоблачно+26°C42 %749 мм3.1 м/с4 %
    20:00Облачно с прояснениями+23°C66 %749 мм1.5 м/с3 %
    23:00Ясно и безоблачно+18°C74 %749 мм1.1 м/с2 %
  • 19июля
    Пятница
    +13°
    +26°
    Облачно с прояснениями
    ВремяПогодаТемператураВлажностьДавлениеВетер, м/сВероятность осадков
    02:00Ясно и безоблачно+16°C83 %749 мм0.9 м/с2 %
    05:00Ясно и безоблачно+15°C86 %749 мм0.8 м/с2 %
    08:00Облачно с прояснениями+20°C71 %749 мм0.9 м/с2 %
    11:00Облачно с прояснениями+24°C56 %749 мм2.3 м/с14 %
    14:00Облачно с прояснениями+25°C49 %749 мм2.8 м/с20 %
    17:00Небольшая облачность+25°C50 %748 мм2.3 м/с13 %
    20:00Небольшая облачность+23°C57 %747 мм1.5 м/с3 %
    23:00Небольшая облачность+18°C70 %747 мм0.9 м/с2 %
Мы используем cookies
Соглашаюсь